Time;durP1;ratioP1;P1;durP2;ratioP2;P2;SDS_P1;SDS_P2;PMS_P1;PMS_P2;Temp;Humidity;BMP_temperature;BMP_pressure;BME280_temperature;BME280_humidity;BME280_pressure;Samples;Min_cycle;Max_cycle;Signal;HPM_P1;HPM_P2
2022/05/12 00:01:16;;;;;;;2.78;0.80;;;;;;;;;;4995661;28;20408;-81
2022/05/12 00:03:42;;;;;;;2.40;0.68;;;;;;;;;;4995959;28;20390;-81
2022/05/12 00:06:08;;;;;;;4.85;0.60;;;;;;;;;;4979163;28;20042;-81
2022/05/12 00:08:35;;;;;;;3.30;0.57;;;;;;;;;;4992645;28;20066;-79
2022/05/12 00:11:00;;;;;;;2.85;0.50;;;;;;;;;;4992409;28;20042;-78
2022/05/12 00:13:26;;;;;;;1.48;0.55;;;;;;;;;;4992066;28;20046;-78
2022/05/12 00:15:53;;;;;;;1.92;0.50;;;;;;;;;;5008579;28;20084;-79
2022/05/12 00:18:18;;;;;;;1.60;0.40;;;;;;;;;;5007790;28;20038;-79
2022/05/12 00:20:44;;;;;;;2.10;0.70;;;;;;;;;;4994254;28;20571;-79
2022/05/12 00:23:15;;;;;;;4.13;0.70;;;;;;;;;;5011498;28;20056;-78
2022/05/12 00:25:42;;;;;;;2.38;0.73;;;;;;;;;;5011500;28;20061;-79
2022/05/12 00:28:08;;;;;;;1.85;0.50;;;;;;;;;;5010627;28;20045;-79
2022/05/12 00:30:33;;;;;;;2.72;0.85;;;;;;;;;;5011636;28;20042;-79
2022/05/12 00:32:59;;;;;;;1.98;0.50;;;;;;;;;;5010941;28;20073;-79
2022/05/12 00:35:25;;;;;;;1.50;0.50;;;;;;;;;;5011462;28;20393;-78
2022/05/12 00:37:50;;;;;;;2.63;0.60;;;;;;;;;;4995011;28;20065;-79
2022/05/12 00:40:16;;;;;;;2.30;0.70;;;;;;;;;;5027945;28;20073;-78
2022/05/12 00:43:29;;;;;;;2.33;0.63;;;;;;;;;;4994515;28;20450;-79
2022/05/12 00:45:55;;;;;;;2.13;0.60;;;;;;;;;;4997353;28;20120;-79
2022/05/12 00:48:20;;;;;;;3.25;0.82;;;;;;;;;;4994301;28;20038;-78
2022/05/12 00:50:46;;;;;;;2.90;0.68;;;;;;;;;;4978722;28;20120;-79
2022/05/12 00:53:11;;;;;;;3.45;0.70;;;;;;;;;;5011368;28;20407;-79
2022/05/12 00:55:38;;;;;;;2.35;0.60;;;;;;;;;;4994647;28;20029;-78
2022/05/12 00:58:06;;;;;;;3.47;0.70;;;;;;;;;;5027679;28;20033;-79
2022/05/12 01:00:31;;;;;;;2.88;0.90;;;;;;;;;;5027922;28;20030;-79
2022/05/12 01:02:57;;;;;;;1.83;0.52;;;;;;;;;;5027062;28;20045;-78
2022/05/12 01:05:23;;;;;;;3.53;0.70;;;;;;;;;;5027602;28;20033;-79
2022/05/12 01:07:51;;;;;;;2.47;0.80;;;;;;;;;;5010659;28;20046;-79
2022/05/12 01:10:17;;;;;;;2.85;0.70;;;;;;;;;;5010875;28;20443;-78
2022/05/12 01:12:44;;;;;;;2.10;0.80;;;;;;;;;;4978401;28;20080;-79
2022/05/12 01:15:10;;;;;;;1.58;0.40;;;;;;;;;;4994709;28;20026;-78
2022/05/12 01:17:35;;;;;;;4.75;0.60;;;;;;;;;;4993788;28;20128;-79
2022/05/12 01:20:01;;;;;;;2.45;0.70;;;;;;;;;;4994499;28;20041;-79
2022/05/12 01:22:34;;;;;;;4.43;0.70;;;;;;;;;;5010431;28;20049;-79
2022/05/12 01:24:59;;;;;;;2.60;0.88;;;;;;;;;;5030396;28;20048;-79
2022/05/12 01:27:25;;;;;;;1.35;0.40;;;;;;;;;;4981447;28;20404;-79
2022/05/12 01:29:52;;;;;;;2.80;0.60;;;;;;;;;;4997549;28;20067;-79
2022/05/12 01:32:19;;;;;;;3.35;0.73;;;;;;;;;;4997985;28;20380;-78
2022/05/12 01:34:45;;;;;;;2.33;0.70;;;;;;;;;;4981085;28;20499;-78
2022/05/12 01:37:11;;;;;;;3.35;0.85;;;;;;;;;;4981525;28;20088;-79
2022/05/12 01:39:37;;;;;;;3.38;0.90;;;;;;;;;;4992434;28;20049;-78
2022/05/12 01:42:03;;;;;;;2.38;0.50;;;;;;;;;;4994210;28;20065;-79
2022/05/12 01:44:29;;;;;;;3.58;0.70;;;;;;;;;;4994341;28;20038;-78
2022/05/12 01:46:54;;;;;;;2.70;0.70;;;;;;;;;;4993873;28;20028;-79
2022/05/12 01:49:20;;;;;;;4.05;0.70;;;;;;;;;;5010496;28;20037;-78
2022/05/12 01:51:45;;;;;;;2.65;0.60;;;;;;;;;;5010763;28;20045;-78
2022/05/12 01:54:11;;;;;;;3.13;0.60;;;;;;;;;;5028637;28;20091;-79
2022/05/12 01:56:36;;;;;;;2.35;0.63;;;;;;;;;;5010909;28;20385;-78
2022/05/12 01:59:01;;;;;;;2.53;0.45;;;;;;;;;;5010815;28;20509;-79
2022/05/12 02:01:27;;;;;;;1.80;0.60;;;;;;;;;;5011042;28;20109;-79
2022/05/12 02:03:52;;;;;;;2.72;0.57;;;;;;;;;;5011062;28;20460;-81
2022/05/12 02:06:18;;;;;;;2.88;1.00;;;;;;;;;;5027636;28;20057;-81
2022/05/12 02:08:43;;;;;;;1.70;0.70;;;;;;;;;;5030862;28;20068;-79
2022/05/12 02:11:09;;;;;;;2.05;0.73;;;;;;;;;;4997811;28;20410;-79
2022/05/12 02:13:34;;;;;;;2.38;0.85;;;;;;;;;;4997264;28;20420;-79
2022/05/12 02:16:00;;;;;;;3.22;0.70;;;;;;;;;;5001710;28;20402;-79
2022/05/12 02:18:28;;;;;;;2.13;0.60;;;;;;;;;;4994432;28;20055;-79
2022/05/12 02:20:54;;;;;;;2.40;0.60;;;;;;;;;;5001262;28;20060;-79
2022/05/12 02:23:19;;;;;;;2.47;0.52;;;;;;;;;;4984445;28;20033;-81
2022/05/12 02:25:45;;;;;;;1.90;0.60;;;;;;;;;;4984589;28;20040;-81
2022/05/12 02:28:11;;;;;;;2.63;0.60;;;;;;;;;;4984234;28;20068;-81
2022/05/12 02:30:36;;;;;;;3.38;0.90;;;;;;;;;;4984465;28;20598;-81
2022/05/12 02:33:02;;;;;;;1.02;0.60;;;;;;;;;;5016981;28;20030;-80
2022/05/12 02:35:28;;;;;;;1.77;0.75;;;;;;;;;;4984816;28;20048;-81
2022/05/12 02:37:53;;;;;;;2.45;0.90;;;;;;;;;;4984400;28;20388;-81
2022/05/12 02:40:20;;;;;;;1.92;0.70;;;;;;;;;;5002956;28;20416;-81
2022/05/12 02:42:46;;;;;;;2.00;1.20;;;;;;;;;;4977610;28;20042;-81
2022/05/12 02:45:11;;;;;;;2.17;0.50;;;;;;;;;;4978241;28;20114;-78
2022/05/12 02:47:37;;;;;;;1.75;0.55;;;;;;;;;;5009952;28;20047;-79
2022/05/12 02:50:03;;;;;;;3.17;0.60;;;;;;;;;;5009953;28;20043;-78
2022/05/12 02:52:28;;;;;;;2.85;0.85;;;;;;;;;;4993750;28;20041;-79
2022/05/12 02:54:54;;;;;;;1.40;0.45;;;;;;;;;;5013503;28;20034;-79
2022/05/12 02:57:19;;;;;;;2.15;0.75;;;;;;;;;;5029512;28;20029;-79
2022/05/12 02:59:45;;;;;;;2.47;0.50;;;;;;;;;;5029883;28;20073;-79
2022/05/12 03:02:10;;;;;;;2.28;0.70;;;;;;;;;;5013126;28;20048;-78
2022/05/12 03:04:36;;;;;;;2.88;0.90;;;;;;;;;;4996617;28;20049;-79
2022/05/12 03:07:01;;;;;;;3.10;0.63;;;;;;;;;;4980480;28;20049;-79
2022/05/12 03:09:28;;;;;;;2.30;0.52;;;;;;;;;;4980175;28;20034;-79
2022/05/12 03:11:54;;;;;;;3.00;0.68;;;;;;;;;;5012570;28;20069;-78
2022/05/12 03:14:19;;;;;;;2.47;0.70;;;;;;;;;;4996937;28;20061;-78
2022/05/12 03:16:45;;;;;;;1.42;0.68;;;;;;;;;;5012757;28;20535;-78
2022/05/12 03:19:11;;;;;;;1.98;0.60;;;;;;;;;;5012848;28;20066;-79
2022/05/12 03:21:36;;;;;;;1.95;0.52;;;;;;;;;;5022230;28;20091;-78
2022/05/12 03:24:04;;;;;;;2.53;0.50;;;;;;;;;;4983718;28;20033;-79
2022/05/12 03:26:31;;;;;;;2.47;0.77;;;;;;;;;;5000388;28;20045;-79
2022/05/12 03:28:56;;;;;;;1.83;0.75;;;;;;;;;;4999777;28;20052;-78
2022/05/12 03:31:22;;;;;;;2.75;1.00;;;;;;;;;;4999790;28;20424;-79
2022/05/12 03:33:48;;;;;;;2.72;0.68;;;;;;;;;;5015930;28;20037;-78
2022/05/12 03:36:15;;;;;;;3.00;0.73;;;;;;;;;;4999775;28;20049;-79
2022/05/12 03:38:40;;;;;;;1.98;0.80;;;;;;;;;;5016159;28;20057;-79
2022/05/12 03:41:15;;;;;;;3.08;0.80;;;;;;;;;;5011708;28;20034;-78
2022/05/12 03:46:25;;;;;;;2.80;1.05;;;;;;;;;;5006854;28;20057;-81
2022/05/12 03:48:51;;;;;;;1.55;0.60;;;;;;;;;;5008666;28;20046;-80
2022/05/12 03:51:16;;;;;;;2.88;0.80;;;;;;;;;;5009154;28;20050;-81
2022/05/12 03:53:41;;;;;;;2.00;0.70;;;;;;;;;;5008921;28;20042;-81
2022/05/12 03:56:07;;;;;;;2.88;0.88;;;;;;;;;;4995390;28;20026;-81
2022/05/12 03:58:33;;;;;;;3.35;0.88;;;;;;;;;;5028783;28;20050;-81
2022/05/12 04:00:59;;;;;;;4.70;0.88;;;;;;;;;;5011980;28;20029;-81
2022/05/12 04:03:25;;;;;;;3.08;1.05;;;;;;;;;;5020959;28;20049;-80
2022/05/12 04:05:50;;;;;;;1.67;0.50;;;;;;;;;;4992741;28;20034;-81
2022/05/12 04:08:15;;;;;;;2.17;0.80;;;;;;;;;;5003438;28;20120;-79
2022/05/12 04:10:41;;;;;;;3.10;0.60;;;;;;;;;;4995539;28;20038;-81
2022/05/12 04:13:07;;;;;;;1.70;0.60;;;;;;;;;;4995069;28;20113;-81
2022/05/12 04:15:32;;;;;;;2.70;0.70;;;;;;;;;;5012030;28;20107;-80
2022/05/12 04:18:02;;;;;;;1.95;0.52;;;;;;;;;;5010804;28;20456;-81
2022/05/12 04:20:29;;;;;;;2.10;0.50;;;;;;;;;;4995684;28;20042;-80
2022/05/12 04:22:54;;;;;;;2.65;0.82;;;;;;;;;;4998798;28;20041;-81
2022/05/12 04:25:20;;;;;;;2.80;0.75;;;;;;;;;;4998805;28;20037;-81
2022/05/12 04:27:45;;;;;;;2.17;0.60;;;;;;;;;;4998902;28;20514;-81
2022/05/12 04:30:12;;;;;;;1.77;0.60;;;;;;;;;;4998798;28;20041;-81
2022/05/12 04:32:38;;;;;;;2.25;0.82;;;;;;;;;;4982354;28;20033;-80
2022/05/12 04:35:14;;;;;;;2.60;0.60;;;;;;;;;;4982308;28;20731;-78
2022/05/12 04:37:47;;;;;;;3.65;0.73;;;;;;;;;;5001096;28;20470;-79
2022/05/12 04:40:17;;;;;;;2.30;0.65;;;;;;;;;;5004869;28;20500;-79
2022/05/12 04:42:43;;;;;;;3.50;0.85;;;;;;;;;;5009285;28;20129;-81
2022/05/12 04:45:09;;;;;;;1.83;0.60;;;;;;;;;;4994598;28;20092;-81
2022/05/12 04:47:35;;;;;;;2.50;0.70;;;;;;;;;;4961613;28;20125;-81
2022/05/12 04:50:01;;;;;;;2.92;0.90;;;;;;;;;;5011143;28;20128;-81
2022/05/12 04:52:26;;;;;;;2.00;0.50;;;;;;;;;;5011123;28;20521;-80
2022/05/12 04:54:54;;;;;;;2.97;0.60;;;;;;;;;;4993565;28;20639;-81
2022/05/12 04:57:20;;;;;;;3.05;0.60;;;;;;;;;;5010423;28;20061;-81
2022/05/12 04:59:46;;;;;;;2.05;0.60;;;;;;;;;;5011213;28;20057;-81
2022/05/12 05:02:11;;;;;;;4.72;0.98;;;;;;;;;;5011237;28;20060;-81
2022/05/12 05:04:37;;;;;;;3.33;0.70;;;;;;;;;;4994787;28;20059;-80
2022/05/12 05:07:02;;;;;;;4.50;0.98;;;;;;;;;;5006491;28;20040;-79
2022/05/12 05:09:28;;;;;;;7.63;1.70;;;;;;;;;;4986459;28;20022;-80
2022/05/12 05:11:54;;;;;;;11.90;1.60;;;;;;;;;;5013720;28;20184;-81
2022/05/12 05:14:20;;;;;;;4.25;2.35;;;;;;;;;;5024251;28;20116;-79
2022/05/12 05:16:46;;;;;;;4.68;1.13;;;;;;;;;;5026905;28;20041;-79
2022/05/12 05:19:12;;;;;;;6.50;1.20;;;;;;;;;;5027182;28;20124;-79
2022/05/12 05:21:37;;;;;;;5.07;1.10;;;;;;;;;;4987436;28;20128;-80
2022/05/12 05:24:03;;;;;;;4.78;1.08;;;;;;;;;;4990133;28;20180;-79
2022/05/12 05:26:29;;;;;;;5.78;1.10;;;;;;;;;;5010730;28;20381;-79
2022/05/12 05:28:54;;;;;;;7.03;1.50;;;;;;;;;;4994304;28;20037;-79
2022/05/12 05:31:20;;;;;;;7.93;3.63;;;;;;;;;;5010895;28;20508;-79
2022/05/12 05:33:45;;;;;;;8.35;5.07;;;;;;;;;;5010868;28;20042;-78
2022/05/12 05:36:11;;;;;;;9.77;5.50;;;;;;;;;;5010500;28;20051;-78
2022/05/12 05:38:36;;;;;;;9.82;5.63;;;;;;;;;;5026683;28;20048;-79
2022/05/12 05:41:02;;;;;;;7.50;4.68;;;;;;;;;;5003345;28;20034;-79
2022/05/12 05:43:28;;;;;;;9.02;4.85;;;;;;;;;;4990511;28;20057;-78
2022/05/12 05:45:54;;;;;;;8.70;4.32;;;;;;;;;;5014822;28;20050;-78
2022/05/12 05:48:20;;;;;;;7.38;3.83;;;;;;;;;;5005449;28;20033;-80
2022/05/12 05:53:33;;;;;;;8.02;2.75;;;;;;;;;;5023203;28;20034;-80
2022/05/12 05:56:00;;;;;;;7.85;3.03;;;;;;;;;;5025722;28;20037;-80
2022/05/12 05:58:25;;;;;;;8.60;2.97;;;;;;;;;;4993371;28;20556;-78
2022/05/12 06:00:51;;;;;;;7.82;2.53;;;;;;;;;;5010581;28;20098;-78
2022/05/12 06:03:16;;;;;;;6.50;2.30;;;;;;;;;;5009336;28;20402;-78
2022/05/12 06:05:42;;;;;;;8.43;2.60;;;;;;;;;;4992854;28;20485;-81
2022/05/12 06:08:11;;;;;;;7.88;2.10;;;;;;;;;;4993735;28;20053;-81
2022/05/12 06:10:37;;;;;;;11.20;3.58;;;;;;;;;;4993755;28;20029;-81
2022/05/12 06:13:03;;;;;;;7.63;2.17;;;;;;;;;;4993255;28;20164;-81
2022/05/12 06:15:28;;;;;;;7.88;1.73;;;;;;;;;;4983579;28;20033;-81
2022/05/12 06:17:54;;;;;;;7.68;1.85;;;;;;;;;;5026252;28;20045;-81
2022/05/12 06:20:20;;;;;;;6.78;1.50;;;;;;;;;;5010202;28;20091;-81
2022/05/12 06:22:45;;;;;;;6.85;2.15;;;;;;;;;;5027847;28;20033;-81
2022/05/12 06:25:11;;;;;;;5.50;1.83;;;;;;;;;;5013659;28;20041;-79
2022/05/12 06:27:37;;;;;;;5.90;1.30;;;;;;;;;;5029938;28;20071;-81
2022/05/12 06:30:04;;;;;;;5.20;1.48;;;;;;;;;;4996950;28;20045;-81
2022/05/12 06:32:30;;;;;;;8.15;1.88;;;;;;;;;;4997010;28;20523;-78
2022/05/12 06:34:56;;;;;;;5.15;1.50;;;;;;;;;;5022988;28;20073;-78
2022/05/12 06:37:22;;;;;;;5.13;1.52;;;;;;;;;;5025171;28;20034;-78
2022/05/12 06:39:47;;;;;;;4.68;1.35;;;;;;;;;;5019361;28;20045;-79
2022/05/12 06:42:13;;;;;;;5.60;1.25;;;;;;;;;;4993467;28;20041;-78
2022/05/12 06:44:39;;;;;;;3.72;1.15;;;;;;;;;;4993783;28;20034;-78
2022/05/12 06:47:13;;;;;;;3.08;1.00;;;;;;;;;;5010750;28;20045;-78
2022/05/12 06:49:38;;;;;;;5.05;1.10;;;;;;;;;;5012701;28;20057;-78
2022/05/12 06:52:05;;;;;;;5.57;1.50;;;;;;;;;;5030030;28;20043;-78
2022/05/12 06:54:32;;;;;;;5.10;1.40;;;;;;;;;;5029719;28;20583;-78
2022/05/12 06:56:57;;;;;;;5.45;2.03;;;;;;;;;;5013126;28;20030;-78
2022/05/12 06:59:22;;;;;;;4.65;1.20;;;;;;;;;;5013169;28;20036;-78
2022/05/12 07:01:48;;;;;;;4.65;1.50;;;;;;;;;;4996921;28;20038;-79
2022/05/12 07:04:13;;;;;;;3.42;1.30;;;;;;;;;;4996579;28;20488;-79
2022/05/12 07:06:39;;;;;;;4.47;1.55;;;;;;;;;;5029636;28;20514;-78
2022/05/12 07:09:04;;;;;;;5.60;1.45;;;;;;;;;;5029719;28;20048;-79
2022/05/12 07:11:31;;;;;;;3.72;1.40;;;;;;;;;;4996373;28;20045;-79
2022/05/12 07:13:56;;;;;;;5.30;1.90;;;;;;;;;;5013211;28;20041;-79
2022/05/12 07:16:21;;;;;;;4.35;1.23;;;;;;;;;;5012770;28;20038;-81
2022/05/12 07:18:48;;;;;;;2.70;1.17;;;;;;;;;;5012601;28;20038;-78
2022/05/12 07:26:42;;;;;;;4.22;1.58;;;;;;;;;;5031382;28;20036;-79
2022/05/12 07:29:15;;;;;;;5.07;2.15;;;;;;;;;;5012460;28;20124;-81
2022/05/12 07:31:41;;;;;;;4.35;1.67;;;;;;;;;;5013310;28;20029;-81
2022/05/12 07:34:07;;;;;;;5.10;1.77;;;;;;;;;;5012167;28;20042;-80
2022/05/12 07:36:34;;;;;;;6.10;2.08;;;;;;;;;;5012165;28;20036;-81
2022/05/12 07:39:00;;;;;;;7.60;2.85;;;;;;;;;;5012295;28;20037;-79
2022/05/12 07:41:26;;;;;;;5.68;3.22;;;;;;;;;;5025367;28;20042;-78
2022/05/12 07:43:51;;;;;;;4.78;3.20;;;;;;;;;;5042030;28;20624;-78
2022/05/12 07:46:19;;;;;;;9.30;3.60;;;;;;;;;;5025524;28;20393;-78
2022/05/12 07:48:44;;;;;;;8.00;3.92;;;;;;;;;;4997009;28;20501;-79
2022/05/12 07:51:10;;;;;;;6.40;3.28;;;;;;;;;;4991675;28;20056;-78
2022/05/12 07:53:37;;;;;;;8.15;4.00;;;;;;;;;;5008870;28;20117;-78
2022/05/12 07:56:03;;;;;;;6.00;3.67;;;;;;;;;;5006465;28;20408;-78
2022/05/12 07:58:29;;;;;;;7.43;4.18;;;;;;;;;;4996126;28;20026;-78
2022/05/12 08:00:54;;;;;;;6.78;4.00;;;;;;;;;;5028584;28;20038;-78
2022/05/12 08:03:20;;;;;;;6.10;3.65;;;;;;;;;;5011780;28;20068;-78
2022/05/12 08:05:46;;;;;;;5.63;3.97;;;;;;;;;;5011971;28;20052;-79
2022/05/12 08:08:11;;;;;;;6.70;3.97;;;;;;;;;;4988639;28;20116;-78
2022/05/12 08:10:37;;;;;;;7.30;4.50;;;;;;;;;;5011912;28;20053;-78
2022/05/12 08:13:03;;;;;;;7.32;4.65;;;;;;;;;;5027902;28;20124;-79
2022/05/12 08:15:28;;;;;;;8.00;4.22;;;;;;;;;;5011663;28;20041;-78
2022/05/12 08:17:54;;;;;;;7.10;3.53;;;;;;;;;;5011617;28;20042;-79
2022/05/12 08:20:20;;;;;;;6.28;3.53;;;;;;;;;;5011966;28;20042;-79
2022/05/12 08:22:45;;;;;;;9.13;4.45;;;;;;;;;;5008293;28;20044;-78
2022/05/12 08:25:11;;;;;;;7.38;3.90;;;;;;;;;;5024917;28;20047;-78
2022/05/12 08:27:36;;;;;;;6.88;3.83;;;;;;;;;;5024363;28;20022;-78
2022/05/12 08:30:04;;;;;;;10.68;3.38;;;;;;;;;;5024586;28;20050;-78
2022/05/12 08:32:29;;;;;;;7.28;3.20;;;;;;;;;;5008233;28;20030;-78
2022/05/12 08:34:54;;;;;;;5.20;2.60;;;;;;;;;;5024573;28;20040;-79
2022/05/12 08:37:20;;;;;;;5.50;2.40;;;;;;;;;;5024472;28;20043;-78
2022/05/12 08:39:46;;;;;;;8.90;2.78;;;;;;;;;;5024647;28;20042;-79
2022/05/12 08:42:19;;;;;;;5.30;2.50;;;;;;;;;;5007065;28;20038;-79
2022/05/12 08:44:44;;;;;;;7.15;2.22;;;;;;;;;;5008237;28;20046;-78
2022/05/12 08:47:14;;;;;;;6.05;2.10;;;;;;;;;;5009224;28;20034;-78
2022/05/12 08:49:45;;;;;;;4.53;2.17;;;;;;;;;;4994835;28;20061;-78
2022/05/12 08:52:14;;;;;;;3.72;1.95;;;;;;;;;;5026955;28;20061;-78
2022/05/12 08:54:42;;;;;;;4.32;1.58;;;;;;;;;;5011613;28;20496;-80
2022/05/12 08:57:26;;;;;;;5.68;2.17;;;;;;;;;;4994297;28;20030;-78
2022/05/12 08:59:51;;;;;;;2.83;1.73;;;;;;;;;;5011196;28;20030;-79
2022/05/12 09:02:25;;;;;;;5.15;1.48;;;;;;;;;;4994375;28;20120;-78
2022/05/12 09:04:51;;;;;;;5.32;1.73;;;;;;;;;;4978312;28;20029;-79
2022/05/12 09:07:22;;;;;;;4.03;1.75;;;;;;;;;;5010849;28;20060;-78
2022/05/12 09:10:09;;;;;;;9.02;2.30;;;;;;;;;;4978736;28;20492;-78
2022/05/12 09:12:46;;;;;;;7.20;2.05;;;;;;;;;;5011709;28;20535;-80
2022/05/12 09:15:21;;;;;;;5.30;1.60;;;;;;;;;;4991271;28;20030;-80
2022/05/12 09:17:51;;;;;;;7.53;1.90;;;;;;;;;;5023486;28;20567;-80
2022/05/12 09:20:17;;;;;;;3.53;1.67;;;;;;;;;;5006917;28;20045;-80
2022/05/12 09:22:42;;;;;;;5.28;1.67;;;;;;;;;;5028821;28;20033;-78
2022/05/12 09:25:09;;;;;;;4.70;1.63;;;;;;;;;;5014200;28;20025;-79
2022/05/12 09:27:36;;;;;;;3.90;1.17;;;;;;;;;;5013702;28;20037;-78
2022/05/12 09:30:04;;;;;;;4.80;1.60;;;;;;;;;;4997309;28;20523;-80
2022/05/12 09:32:31;;;;;;;3.53;1.27;;;;;;;;;;4998594;28;20037;-78
2022/05/12 09:35:04;;;;;;;4.47;1.27;;;;;;;;;;5014177;28;20076;-78
2022/05/12 09:37:31;;;;;;;4.88;1.48;;;;;;;;;;5013904;28;20037;-78
2022/05/12 09:40:20;;;;;;;5.75;1.48;;;;;;;;;;4990537;28;20041;-78
2022/05/12 09:42:51;;;;;;;5.18;1.30;;;;;;;;;;4993853;28;20042;-78
2022/05/12 09:45:16;;;;;;;4.82;1.20;;;;;;;;;;4994522;28;20045;-78
2022/05/12 09:47:42;;;;;;;3.40;1.10;;;;;;;;;;5011469;28;20049;-78
2022/05/12 09:50:25;;;;;;;4.50;1.50;;;;;;;;;;5010546;28;20050;-79
2022/05/12 09:52:53;;;;;;;14.57;7.20;;;;;;;;;;5010399;28;20132;-78
2022/05/12 09:55:20;;;;;;;10.00;4.03;;;;;;;;;;5007274;28;20030;-79
2022/05/12 09:57:46;;;;;;;7.85;4.50;;;;;;;;;;5006924;28;20493;-79
2022/05/12 10:00:39;;;;;;;12.27;4.15;;;;;;;;;;4992300;28;20042;-78
2022/05/12 10:09:13;;;;;;;6.07;2.40;;;;;;;;;;5008943;28;20057;-78
2022/05/12 10:12:08;;;;;;;3.83;1.63;;;;;;;;;;5009898;28;20506;-78
2022/05/12 10:14:48;;;;;;;4.07;1.38;;;;;;;;;;5008799;28;20054;-79
2022/05/12 10:17:43;;;;;;;4.75;2.08;;;;;;;;;;5013939;28;20602;-79
2022/05/12 10:20:11;;;;;;;4.40;1.38;;;;;;;;;;5030461;28;20113;-79
2022/05/12 10:23:00;;;;;;;3.30;0.98;;;;;;;;;;5010221;28;20097;-78
2022/05/12 10:25:58;;;;;;;3.75;2.22;;;;;;;;;;4995923;28;20042;-79
2022/05/12 10:28:43;;;;;;;9.88;5.25;;;;;;;;;;4977467;28;20049;-78
2022/05/12 10:31:15;;;;;;;10.18;3.47;;;;;;;;;;4980210;28;20045;-78
2022/05/12 10:33:43;;;;;;;6.63;2.50;;;;;;;;;;4994639;28;20035;-78
2022/05/12 10:36:26;;;;;;;4.53;1.60;;;;;;;;;;4993910;28;20255;-77
2022/05/12 10:39:06;;;;;;;7.72;2.00;;;;;;;;;;4995534;28;20034;-78
2022/05/12 10:41:38;;;;;;;4.20;1.70;;;;;;;;;;4977454;28;20088;-78
2022/05/12 10:44:25;;;;;;;4.25;1.02;;;;;;;;;;4994123;28;20397;-78
2022/05/12 10:46:57;;;;;;;4.32;1.30;;;;;;;;;;4993915;28;20503;-78
2022/05/12 10:49:43;;;;;;;7.57;1.92;;;;;;;;;;4994734;28;20038;-78
2022/05/12 10:52:28;;;;;;;6.32;1.58;;;;;;;;;;4993878;28;20425;-78
2022/05/12 10:55:29;;;;;;;6.35;1.25;;;;;;;;;;5014758;28;20038;-78
2022/05/12 10:57:54;;;;;;;9.60;1.75;;;;;;;;;;5042933;28;20046;-78
2022/05/12 11:00:32;;;;;;;7.05;1.23;;;;;;;;;;5013218;28;20107;-78
2022/05/12 11:03:11;;;;;;;7.65;2.03;;;;;;;;;;4996821;28;20038;-77
2022/05/12 11:05:39;;;;;;;6.55;1.00;;;;;;;;;;5013430;28;20030;-78
2022/05/12 11:08:24;;;;;;;5.50;1.13;;;;;;;;;;5013019;28;20472;-78
2022/05/12 11:10:52;;;;;;;4.93;0.90;;;;;;;;;;4997295;28;20092;-79
2022/05/12 11:13:23;;;;;;;3.78;0.60;;;;;;;;;;4980343;28;20373;-78
2022/05/12 11:15:58;;;;;;;3.10;0.85;;;;;;;;;;4996756;28;20038;-78
2022/05/12 11:18:33;;;;;;;4.18;1.33;;;;;;;;;;5012633;28;20038;-78
2022/05/12 11:21:32;;;;;;;4.03;1.17;;;;;;;;;;5017245;28;20060;-79
2022/05/12 11:24:16;;;;;;;4.97;1.10;;;;;;;;;;4998417;28;20140;-79
2022/05/12 11:26:49;;;;;;;8.40;1.50;;;;;;;;;;5015571;28;20057;-79
2022/05/12 11:32:10;;;;;;;21.85;12.57;;;;;;;;;;5032434;28;20037;-79
2022/05/12 11:34:35;;;;;;;25.08;17.33;;;;;;;;;;5031909;28;20096;-79
2022/05/12 11:37:31;;;;;;;22.02;11.75;;;;;;;;;;5014432;28;20045;-79
2022/05/12 11:39:58;;;;;;;11.43;6.93;;;;;;;;;;5007018;28;20511;-79
2022/05/12 11:42:28;;;;;;;12.13;5.05;;;;;;;;;;4995657;28;20026;-79
2022/05/12 11:45:02;;;;;;;8.23;3.92;;;;;;;;;;5012810;28;20073;-79
2022/05/12 11:48:09;;;;;;;5.30;2.70;;;;;;;;;;4995961;28;20503;-80
2022/05/12 11:50:52;;;;;;;6.05;3.35;;;;;;;;;;5009929;28;20052;-79
2022/05/12 11:53:22;;;;;;;5.65;2.67;;;;;;;;;;5043035;28;20062;-79
2022/05/12 11:55:58;;;;;;;6.10;2.80;;;;;;;;;;5011539;28;20034;-80
2022/05/12 11:58:44;;;;;;;4.85;2.80;;;;;;;;;;5011525;28;20041;-79
2022/05/12 12:01:14;;;;;;;5.78;2.33;;;;;;;;;;4978815;28;20034;-80
2022/05/12 12:04:00;;;;;;;5.90;3.20;;;;;;;;;;4995219;28;20034;-79
2022/05/12 12:06:42;;;;;;;5.63;2.75;;;;;;;;;;5028010;28;20068;-80
2022/05/12 12:09:30;;;;;;;7.10;2.75;;;;;;;;;;5011795;28;20030;-79
2022/05/12 12:11:55;;;;;;;6.30;2.70;;;;;;;;;;4995722;28;20114;-79
2022/05/12 12:14:42;;;;;;;6.50;2.65;;;;;;;;;;5011659;28;20045;-79
2022/05/12 12:17:14;;;;;;;3.72;1.65;;;;;;;;;;5044504;28;20041;-79
2022/05/12 12:19:47;;;;;;;6.55;2.22;;;;;;;;;;5028667;28;20077;-79
2022/05/12 12:22:37;;;;;;;3.03;1.02;;;;;;;;;;5008566;28;20115;-79
2022/05/12 12:25:09;;;;;;;7.97;1.58;;;;;;;;;;4992067;28;20038;-79
2022/05/12 12:27:52;;;;;;;3.22;1.08;;;;;;;;;;4992009;28;20408;-79
2022/05/12 12:30:21;;;;;;;4.93;1.05;;;;;;;;;;4976039;28;20047;-79
2022/05/12 12:33:13;;;;;;;4.00;0.90;;;;;;;;;;4992280;28;20092;-79
2022/05/12 12:35:51;;;;;;;3.95;0.70;;;;;;;;;;4993084;28;20180;-79
2022/05/12 12:39:02;;;;;;;3.00;0.75;;;;;;;;;;4975533;28;20500;-79
2022/05/12 12:41:28;;;;;;;5.25;1.52;;;;;;;;;;4992449;28;20069;-79
2022/05/12 12:44:00;;;;;;;2.42;0.98;;;;;;;;;;5024685;28;20030;-79
2022/05/12 12:46:32;;;;;;;9.63;1.15;;;;;;;;;;5008269;28;20038;-80
2022/05/12 12:49:01;;;;;;;3.47;0.85;;;;;;;;;;5004207;28;20085;-79
2022/05/12 12:51:33;;;;;;;5.22;1.00;;;;;;;;;;5008345;28;20421;-79
2022/05/12 12:56:52;;;;;;;3.67;0.70;;;;;;;;;;5027281;28;20034;-80
2022/05/12 12:59:20;;;;;;;4.35;0.73;;;;;;;;;;5012299;28;20397;-80
2022/05/12 13:01:54;;;;;;;3.72;0.70;;;;;;;;;;5011709;28;20049;-80
2022/05/12 13:04:25;;;;;;;3.13;0.68;;;;;;;;;;5011310;28;20076;-80
2022/05/12 13:07:12;;;;;;;2.83;0.60;;;;;;;;;;5010713;28;20057;-79
2022/05/12 13:09:39;;;;;;;3.40;0.68;;;;;;;;;;5011119;28;20527;-79
2022/05/12 13:12:16;;;;;;;5.82;1.00;;;;;;;;;;4978171;28;20038;-79
2022/05/12 13:14:42;;;;;;;3.58;0.82;;;;;;;;;;4995617;28;20400;-79
2022/05/12 13:17:11;;;;;;;2.70;0.68;;;;;;;;;;5010552;28;20129;-79
2022/05/12 13:19:39;;;;;;;5.32;0.95;;;;;;;;;;5010064;28;20038;-78
2022/05/12 13:22:05;;;;;;;4.28;0.93;;;;;;;;;;5007340;28;20068;-79
2022/05/12 13:24:32;;;;;;;5.47;0.95;;;;;;;;;;4959121;28;20584;-78
2022/05/12 13:27:02;;;;;;;5.38;1.00;;;;;;;;;;4991161;28;20493;-78
2022/05/12 13:29:29;;;;;;;4.20;0.80;;;;;;;;;;4975081;28;20062;-78
2022/05/12 13:32:02;;;;;;;7.28;1.20;;;;;;;;;;4959069;28;20046;-78
2022/05/12 13:34:31;;;;;;;7.93;1.33;;;;;;;;;;4976297;28;20146;-78
2022/05/12 13:37:20;;;;;;;7.25;1.00;;;;;;;;;;4959028;28;20129;-78
2022/05/12 13:39:50;;;;;;;7.00;1.48;;;;;;;;;;4996972;28;20038;-78
2022/05/12 13:42:43;;;;;;;3.58;1.52;;;;;;;;;;4977862;28;20491;-78
2022/05/12 13:45:23;;;;;;;5.65;0.70;;;;;;;;;;4991731;28;20046;-80
2022/05/12 13:47:50;;;;;;;7.25;0.80;;;;;;;;;;4977874;28;20034;-80
2022/05/12 13:50:16;;;;;;;3.38;0.80;;;;;;;;;;4995718;28;20038;-79
2022/05/12 13:52:49;;;;;;;4.40;0.90;;;;;;;;;;4998139;28;20048;-77
2022/05/12 13:55:20;;;;;;;4.82;1.00;;;;;;;;;;5011266;28;20030;-78
2022/05/12 13:58:11;;;;;;;4.53;1.20;;;;;;;;;;4994730;28;20077;-78
2022/05/12 14:00:48;;;;;;;6.05;1.20;;;;;;;;;;5006437;28;20042;-77
2022/05/12 14:03:14;;;;;;;2.63;1.20;;;;;;;;;;4995100;28;20031;-77
2022/05/12 14:05:39;;;;;;;5.72;1.23;;;;;;;;;;4995489;28;20413;-77
2022/05/12 14:08:05;;;;;;;7.30;1.00;;;;;;;;;;4994751;28;20113;-77
2022/05/12 14:10:38;;;;;;;4.72;0.75;;;;;;;;;;5011432;28;20038;-77
2022/05/12 14:21:54;;;;;;;3.75;0.70;;;;;;;;;;4981438;28;20054;-77
2022/05/12 14:24:21;;;;;;;2.95;0.95;;;;;;;;;;5005816;28;20074;-77
2022/05/12 14:26:46;;;;;;;3.58;0.80;;;;;;;;;;5013362;28;20127;-77
2022/05/12 14:29:12;;;;;;;3.50;1.23;;;;;;;;;;4997237;28;20073;-77
2022/05/12 14:31:37;;;;;;;3.70;0.90;;;;;;;;;;5013957;28;20049;-77
2022/05/12 14:34:03;;;;;;;5.15;1.20;;;;;;;;;;4997231;28;20455;-77
2022/05/12 14:36:29;;;;;;;4.25;0.80;;;;;;;;;;4981250;28;20033;-77
2022/05/12 14:38:54;;;;;;;3.22;0.50;;;;;;;;;;5013884;28;20109;-77
2022/05/12 14:41:21;;;;;;;3.28;0.47;;;;;;;;;;5026415;28;20034;-77
2022/05/12 14:43:48;;;;;;;3.35;0.63;;;;;;;;;;5010271;28;20030;-77
2022/05/12 14:46:13;;;;;;;3.42;0.60;;;;;;;;;;4994058;28;20476;-76
2022/05/12 14:48:41;;;;;;;1.83;0.40;;;;;;;;;;4996953;28;20091;-77
2022/05/12 14:51:07;;;;;;;2.05;0.68;;;;;;;;;;5013397;28;20130;-77
2022/05/12 14:53:32;;;;;;;4.25;1.17;;;;;;;;;;5029993;28;20045;-77
2022/05/12 14:55:58;;;;;;;1.83;0.73;;;;;;;;;;5029950;28;20030;-77
2022/05/12 14:58:23;;;;;;;3.13;0.50;;;;;;;;;;4997084;28;20032;-77
2022/05/12 15:00:48;;;;;;;2.25;0.50;;;;;;;;;;5012864;28;20038;-77
2022/05/12 15:03:14;;;;;;;2.92;0.40;;;;;;;;;;4996830;28;20052;-77
2022/05/12 15:05:40;;;;;;;2.88;0.90;;;;;;;;;;4980640;28;20049;-76
2022/05/12 15:08:06;;;;;;;3.22;0.70;;;;;;;;;;4993721;28;20054;-76
2022/05/12 15:10:32;;;;;;;3.25;0.73;;;;;;;;;;4993791;28;20128;-77
2022/05/12 15:12:57;;;;;;;5.28;1.10;;;;;;;;;;5009493;28;20030;-77
2022/05/12 15:15:22;;;;;;;4.18;1.42;;;;;;;;;;5012551;28;20038;-77
2022/05/12 15:17:49;;;;;;;6.05;2.08;;;;;;;;;;5012102;28;20050;-77
2022/05/12 15:20:16;;;;;;;8.55;4.57;;;;;;;;;;5029349;28;20045;-77
2022/05/12 15:22:42;;;;;;;9.82;4.63;;;;;;;;;;5011394;28;20058;-77
2022/05/12 15:25:08;;;;;;;8.23;3.53;;;;;;;;;;4996262;28;20042;-77
2022/05/12 15:27:34;;;;;;;7.25;2.10;;;;;;;;;;4979482;28;20066;-77